sensor_id;sensor_type;location;lat;lon;timestamp;pressure;altitude;pressure_sealevel;temperature;humidity
14383;BME280;7275;50.328;8.720;2024-01-07T00:01:47;99368.16;;;11.14;52.34
14383;BME280;7275;50.328;8.720;2024-01-07T00:04:15;99365.50;;;11.14;52.33
14383;BME280;7275;50.328;8.720;2024-01-07T00:06:43;99365.50;;;11.14;52.26
14383;BME280;7275;50.328;8.720;2024-01-07T00:09:12;99372.72;;;11.11;52.20
14383;BME280;7275;50.328;8.720;2024-01-07T00:11:40;99376.38;;;11.08;52.02
14383;BME280;7275;50.328;8.720;2024-01-07T00:14:08;99381.81;;;11.05;52.26
14383;BME280;7275;50.328;8.720;2024-01-07T00:16:35;99383.59;;;11.05;52.09
14383;BME280;7275;50.328;8.720;2024-01-07T00:19:03;99388.94;;;11.03;51.95
14383;BME280;7275;50.328;8.720;2024-01-07T00:21:31;99384.44;;;11.05;51.95
14383;BME280;7275;50.328;8.720;2024-01-07T00:23:58;99379.28;;;11.02;52.13
14383;BME280;7275;50.328;8.720;2024-01-07T00:26:27;99386.44;;;11.00;52.34
14383;BME280;7275;50.328;8.720;2024-01-07T00:28:55;99387.41;;;10.98;52.42
14383;BME280;7275;50.328;8.720;2024-01-07T00:31:22;99387.41;;;10.98;51.94
14383;BME280;7275;50.328;8.720;2024-01-07T00:33:50;99398.78;;;11.00;52.34
14383;BME280;7275;50.328;8.720;2024-01-07T00:36:18;99383.78;;;11.00;52.18
14383;BME280;7275;50.328;8.720;2024-01-07T00:38:45;99390.94;;;10.98;52.02
14383;BME280;7275;50.328;8.720;2024-01-07T00:41:13;99395.34;;;10.98;52.29
14383;BME280;7275;50.328;8.720;2024-01-07T00:43:41;99401.44;;;11.00;51.87
14383;BME280;7275;50.328;8.720;2024-01-07T00:46:09;99402.41;;;10.97;51.66
14383;BME280;7275;50.328;8.720;2024-01-07T00:48:37;99407.00;;;10.94;52.03
14383;BME280;7275;50.328;8.720;2024-01-07T00:51:04;99413.22;;;10.93;52.08
14383;BME280;7275;50.328;8.720;2024-01-07T00:53:31;99414.22;;;10.90;52.13
14383;BME280;7275;50.328;8.720;2024-01-07T00:55:58;99410.75;;;10.88;51.97
14383;BME280;7275;50.328;8.720;2024-01-07T00:58:26;99414.31;;;10.87;52.28
14383;BME280;7275;50.328;8.720;2024-01-07T01:00:55;99413.53;;;10.85;52.24
14383;BME280;7275;50.328;8.720;2024-01-07T01:03:23;99410.88;;;10.85;52.02
14383;BME280;7275;50.328;8.720;2024-01-07T01:05:50;99418.75;;;10.87;52.14
14383;BME280;7275;50.328;8.720;2024-01-07T01:08:18;99413.47;;;10.87;51.93
14383;BME280;7275;50.328;8.720;2024-01-07T01:10:45;99421.47;;;10.85;52.35
14383;BME280;7275;50.328;8.720;2024-01-07T01:13:13;99420.56;;;10.86;52.32
14383;BME280;7275;50.328;8.720;2024-01-07T01:15:40;99429.31;;;10.87;51.87
14383;BME280;7275;50.328;8.720;2024-01-07T01:18:09;99432.03;;;10.85;52.03
14383;BME280;7275;50.328;8.720;2024-01-07T01:20:37;99427.88;;;10.80;52.33
14383;BME280;7275;50.328;8.720;2024-01-07T01:23:04;99427.81;;;10.81;52.28
14383;BME280;7275;50.328;8.720;2024-01-07T01:25:32;99426.81;;;10.84;52.35
14383;BME280;7275;50.328;8.720;2024-01-07T01:27:59;99431.31;;;10.82;52.17
14383;BME280;7275;50.328;8.720;2024-01-07T01:30:27;99437.47;;;10.82;52.43
14383;BME280;7275;50.328;8.720;2024-01-07T01:32:58;99440.22;;;10.79;52.06
14383;BME280;7275;50.328;8.720;2024-01-07T01:35:27;99439.38;;;10.79;52.01
14383;BME280;7275;50.328;8.720;2024-01-07T01:37:54;99443.81;;;10.78;52.11
14383;BME280;7275;50.328;8.720;2024-01-07T01:40:21;99437.50;;;10.81;52.19
14383;BME280;7275;50.328;8.720;2024-01-07T01:42:49;99441.03;;;10.81;52.47
14383;BME280;7275;50.328;8.720;2024-01-07T01:45:16;99443.75;;;10.80;52.42
14383;BME280;7275;50.328;8.720;2024-01-07T01:47:46;99448.16;;;10.79;52.28
14383;BME280;7275;50.328;8.720;2024-01-07T01:50:13;99452.66;;;10.77;52.45
14383;BME280;7275;50.328;8.720;2024-01-07T01:52:43;99448.25;;;10.78;52.32
14383;BME280;7275;50.328;8.720;2024-01-07T01:55:11;99447.31;;;10.79;52.31
14383;BME280;7275;50.328;8.720;2024-01-07T01:57:40;99449.03;;;10.80;52.66
14383;BME280;7275;50.328;8.720;2024-01-07T02:00:09;99445.44;;;10.81;52.51
14383;BME280;7275;50.328;8.720;2024-01-07T02:02:36;99444.63;;;10.80;52.20
14383;BME280;7275;50.328;8.720;2024-01-07T02:05:04;99446.25;;;10.83;52.33
14383;BME280;7275;50.328;8.720;2024-01-07T02:07:32;99448.97;;;10.81;52.40
14383;BME280;7275;50.328;8.720;2024-01-07T02:10:02;99455.22;;;10.79;52.46
14383;BME280;7275;50.328;8.720;2024-01-07T02:12:30;99451.88;;;10.75;52.51
14383;BME280;7275;50.328;8.720;2024-01-07T02:14:58;99456.28;;;10.75;52.38
14383;BME280;7275;50.328;8.720;2024-01-07T02:17:26;99450.19;;;10.73;52.39
14383;BME280;7275;50.328;8.720;2024-01-07T02:19:54;99451.00;;;10.75;52.43
14383;BME280;7275;50.328;8.720;2024-01-07T02:22:21;99449.34;;;10.72;52.62
14383;BME280;7275;50.328;8.720;2024-01-07T02:24:50;99455.63;;;10.70;52.66
14383;BME280;7275;50.328;8.720;2024-01-07T02:27:18;99456.47;;;10.70;52.68
14383;BME280;7275;50.328;8.720;2024-01-07T02:29:45;99460.06;;;10.69;52.52
14383;BME280;7275;50.328;8.720;2024-01-07T02:32:13;99462.63;;;10.71;52.72
14383;BME280;7275;50.328;8.720;2024-01-07T02:34:40;99458.22;;;10.71;52.53
14383;BME280;7275;50.328;8.720;2024-01-07T02:37:08;99467.97;;;10.69;52.57
14383;BME280;7275;50.328;8.720;2024-01-07T02:39:36;99461.81;;;10.69;52.68
14383;BME280;7275;50.328;8.720;2024-01-07T02:42:05;99468.97;;;10.67;52.77
14383;BME280;7275;50.328;8.720;2024-01-07T02:44:32;99467.25;;;10.66;52.87
14383;BME280;7275;50.328;8.720;2024-01-07T02:47:00;99466.50;;;10.62;52.65
14383;BME280;7275;50.328;8.720;2024-01-07T02:49:28;99469.09;;;10.64;52.50
14383;BME280;7275;50.328;8.720;2024-01-07T02:51:55;99465.59;;;10.63;52.77
14383;BME280;7275;50.328;8.720;2024-01-07T02:54:23;99460.38;;;10.62;52.88
14383;BME280;7275;50.328;8.720;2024-01-07T02:56:51;99465.66;;;10.62;52.67
14383;BME280;7275;50.328;8.720;2024-01-07T02:59:20;99466.56;;;10.61;52.68
14383;BME280;7275;50.328;8.720;2024-01-07T03:01:47;99471.06;;;10.59;52.72
14383;BME280;7275;50.328;8.720;2024-01-07T03:04:16;99472.84;;;10.58;52.80
14383;BME280;7275;50.328;8.720;2024-01-07T03:06:43;99474.59;;;10.59;52.89
14383;BME280;7275;50.328;8.720;2024-01-07T03:09:11;99469.22;;;10.61;52.90
14383;BME280;7275;50.328;8.720;2024-01-07T03:11:39;99469.28;;;10.59;52.69
14383;BME280;7275;50.328;8.720;2024-01-07T03:14:07;99474.50;;;10.61;53.11
14383;BME280;7275;50.328;8.720;2024-01-07T03:16:36;99465.78;;;10.59;52.90
14383;BME280;7275;50.328;8.720;2024-01-07T03:19:04;99479.97;;;10.56;52.88
14383;BME280;7275;50.328;8.720;2024-01-07T03:21:32;99483.66;;;10.52;52.68
14383;BME280;7275;50.328;8.720;2024-01-07T03:23:59;99475.81;;;10.51;53.02
14383;BME280;7275;50.328;8.720;2024-01-07T03:26:29;99474.06;;;10.50;52.97
14383;BME280;7275;50.328;8.720;2024-01-07T03:28:58;99476.72;;;10.50;53.15
14383;BME280;7275;50.328;8.720;2024-01-07T03:31:27;99482.94;;;10.49;53.26
14383;BME280;7275;50.328;8.720;2024-01-07T03:33:57;99482.00;;;10.50;53.27
14383;BME280;7275;50.328;8.720;2024-01-07T03:36:25;99482.06;;;10.48;53.14
14383;BME280;7275;50.328;8.720;2024-01-07T03:38:52;99479.38;;;10.50;53.29
14383;BME280;7275;50.328;8.720;2024-01-07T03:41:21;99472.44;;;10.47;53.39
14383;BME280;7275;50.328;8.720;2024-01-07T03:43:49;99478.56;;;10.48;53.56
14383;BME280;7275;50.328;8.720;2024-01-07T03:46:17;99473.34;;;10.46;53.57
14383;BME280;7275;50.328;8.720;2024-01-07T03:48:45;99478.63;;;10.46;53.33
14383;BME280;7275;50.328;8.720;2024-01-07T03:51:14;99473.41;;;10.44;53.50
14383;BME280;7275;50.328;8.720;2024-01-07T03:53:41;99482.22;;;10.45;53.55
14383;BME280;7275;50.328;8.720;2024-01-07T03:56:09;99482.06;;;10.48;53.81
14383;BME280;7275;50.328;8.720;2024-01-07T03:58:36;99485.50;;;10.50;53.61
14383;BME280;7275;50.328;8.720;2024-01-07T04:01:04;99487.28;;;10.50;53.99
14383;BME280;7275;50.328;8.720;2024-01-07T04:03:31;99488.09;;;10.52;54.03
14383;BME280;7275;50.328;8.720;2024-01-07T04:05:59;99487.25;;;10.51;54.08
14383;BME280;7275;50.328;8.720;2024-01-07T04:08:28;99494.31;;;10.51;53.93
14383;BME280;7275;50.328;8.720;2024-01-07T04:10:56;99494.16;;;10.54;53.74
14383;BME280;7275;50.328;8.720;2024-01-07T04:13:23;99489.69;;;10.56;53.79
14383;BME280;7275;50.328;8.720;2024-01-07T04:15:51;99488.78;;;10.57;54.08
14383;BME280;7275;50.328;8.720;2024-01-07T04:18:18;99493.94;;;10.60;53.95
14383;BME280;7275;50.328;8.720;2024-01-07T04:20:46;99486.81;;;10.62;54.09
14383;BME280;7275;50.328;8.720;2024-01-07T04:23:14;99501.66;;;10.64;53.81
14383;BME280;7275;50.328;8.720;2024-01-07T04:25:42;99496.44;;;10.63;53.70
14383;BME280;7275;50.328;8.720;2024-01-07T04:28:11;99488.44;;;10.64;53.80
14383;BME280;7275;50.328;8.720;2024-01-07T04:30:39;99498.19;;;10.64;53.94
14383;BME280;7275;50.328;8.720;2024-01-07T04:33:07;99502.59;;;10.63;53.75
14383;BME280;7275;50.328;8.720;2024-01-07T04:35:34;99514.03;;;10.64;53.92
14383;BME280;7275;50.328;8.720;2024-01-07T04:38:03;99517.66;;;10.61;53.84
14383;BME280;7275;50.328;8.720;2024-01-07T04:40:30;99525.53;;;10.63;53.92
14383;BME280;7275;50.328;8.720;2024-01-07T04:42:59;99518.47;;;10.63;53.91
14383;BME280;7275;50.328;8.720;2024-01-07T04:45:27;99528.16;;;10.63;53.64
14383;BME280;7275;50.328;8.720;2024-01-07T04:47:55;99527.31;;;10.62;53.61
14383;BME280;7275;50.328;8.720;2024-01-07T04:50:22;99524.63;;;10.64;53.82
14383;BME280;7275;50.328;8.720;2024-01-07T04:52:50;99530.75;;;10.64;53.84
14383;BME280;7275;50.328;8.720;2024-01-07T04:55:17;99530.81;;;10.63;53.96
14383;BME280;7275;50.328;8.720;2024-01-07T04:57:45;99545.81;;;10.62;53.66
14383;BME280;7275;50.328;8.720;2024-01-07T05:00:15;99541.47;;;10.61;54.06
14383;BME280;7275;50.328;8.720;2024-01-07T05:02:43;99543.16;;;10.62;53.78
14383;BME280;7275;50.328;8.720;2024-01-07T05:05:10;99550.97;;;10.65;53.76
14383;BME280;7275;50.328;8.720;2024-01-07T05:07:38;99550.91;;;10.67;53.71
14383;BME280;7275;50.328;8.720;2024-01-07T05:10:06;99557.06;;;10.67;53.62
14383;BME280;7275;50.328;8.720;2024-01-07T05:12:34;99555.22;;;10.69;53.42
14383;BME280;7275;50.328;8.720;2024-01-07T05:15:02;99572.84;;;10.69;53.44
14383;BME280;7275;50.328;8.720;2024-01-07T05:17:31;99588.00;;;10.65;53.24
14383;BME280;7275;50.328;8.720;2024-01-07T05:19:59;99579.19;;;10.65;53.39
14383;BME280;7275;50.328;8.720;2024-01-07T05:22:27;99575.75;;;10.63;53.24
14383;BME280;7275;50.328;8.720;2024-01-07T05:24:54;99587.25;;;10.62;53.05
14383;BME280;7275;50.328;8.720;2024-01-07T05:27:22;99586.31;;;10.63;52.92
14383;BME280;7275;50.328;8.720;2024-01-07T05:29:50;99584.66;;;10.60;52.68
14383;BME280;7275;50.328;8.720;2024-01-07T05:32:17;99589.09;;;10.60;52.81
14383;BME280;7275;50.328;8.720;2024-01-07T05:34:46;99600.69;;;10.56;52.86
14383;BME280;7275;50.328;8.720;2024-01-07T05:37:14;99601.72;;;10.52;52.79
14383;BME280;7275;50.328;8.720;2024-01-07T05:39:41;99605.25;;;10.52;52.86
14383;BME280;7275;50.328;8.720;2024-01-07T05:42:09;99610.59;;;10.51;52.55
14383;BME280;7275;50.328;8.720;2024-01-07T05:44:36;99614.94;;;10.52;52.90
14383;BME280;7275;50.328;8.720;2024-01-07T05:47:04;99621.16;;;10.51;52.66
14383;BME280;7275;50.328;8.720;2024-01-07T05:49:32;99616.75;;;10.51;52.46
14383;BME280;7275;50.328;8.720;2024-01-07T05:52:01;99624.72;;;10.50;52.35
14383;BME280;7275;50.328;8.720;2024-01-07T05:54:28;99630.06;;;10.48;52.26
14383;BME280;7275;50.328;8.720;2024-01-07T05:56:57;99630.78;;;10.52;52.51
14383;BME280;7275;50.328;8.720;2024-01-07T05:59:25;99634.44;;;10.49;52.22
14383;BME280;7275;50.328;8.720;2024-01-07T06:01:58;99641.50;;;10.49;52.45
14383;BME280;7275;50.328;8.720;2024-01-07T06:04:25;99646.84;;;10.47;51.90
14383;BME280;7275;50.328;8.720;2024-01-07T06:06:53;99646.94;;;10.44;52.52
14383;BME280;7275;50.328;8.720;2024-01-07T06:09:22;99655.78;;;10.43;52.39
14383;BME280;7275;50.328;8.720;2024-01-07T06:11:50;99656.78;;;10.40;51.89
14383;BME280;7275;50.328;8.720;2024-01-07T06:14:17;99668.38;;;10.36;52.26
14383;BME280;7275;50.328;8.720;2024-01-07T06:16:45;99671.03;;;10.36;52.05
14383;BME280;7275;50.328;8.720;2024-01-07T06:19:13;99671.19;;;10.32;51.67
14383;BME280;7275;50.328;8.720;2024-01-07T06:21:41;99681.94;;;10.27;51.63
14383;BME280;7275;50.328;8.720;2024-01-07T06:24:09;99678.56;;;10.22;51.72
14383;BME280;7275;50.328;8.720;2024-01-07T06:26:38;99688.34;;;10.20;51.85
14383;BME280;7275;50.328;8.720;2024-01-07T06:29:07;99692.78;;;10.20;51.73
14383;BME280;7275;50.328;8.720;2024-01-07T06:31:35;99689.19;;;10.21;51.63
14383;BME280;7275;50.328;8.720;2024-01-07T06:34:03;99689.28;;;10.19;51.67
14383;BME280;7275;50.328;8.720;2024-01-07T06:36:31;99705.94;;;10.21;51.94
14383;BME280;7275;50.328;8.720;2024-01-07T06:38:59;99705.13;;;10.19;51.45
14383;BME280;7275;50.328;8.720;2024-01-07T06:41:26;99707.91;;;10.15;51.95
14383;BME280;7275;50.328;8.720;2024-01-07T06:43:55;99708.00;;;10.12;51.38
14383;BME280;7275;50.328;8.720;2024-01-07T06:46:23;99707.22;;;10.08;51.33
14383;BME280;7275;50.328;8.720;2024-01-07T06:48:50;99704.72;;;10.05;51.66
14383;BME280;7275;50.328;8.720;2024-01-07T06:51:18;99719.75;;;10.03;51.46
14383;BME280;7275;50.328;8.720;2024-01-07T06:53:46;99722.41;;;10.03;51.75
14383;BME280;7275;50.328;8.720;2024-01-07T06:56:13;99724.19;;;10.01;51.39
14383;BME280;7275;50.328;8.720;2024-01-07T06:58:41;99722.59;;;9.97;51.46
14383;BME280;7275;50.328;8.720;2024-01-07T07:01:10;99733.19;;;9.96;51.48
14383;BME280;7275;50.328;8.720;2024-01-07T07:03:40;99740.31;;;9.94;51.93
14383;BME280;7275;50.328;8.720;2024-01-07T07:06:07;99739.41;;;9.95;51.81
14383;BME280;7275;50.328;8.720;2024-01-07T07:08:35;99745.59;;;9.94;51.62
14383;BME280;7275;50.328;8.720;2024-01-07T07:11:03;99750.00;;;9.93;51.64
14383;BME280;7275;50.328;8.720;2024-01-07T07:13:30;99756.09;;;9.95;52.03
14383;BME280;7275;50.328;8.720;2024-01-07T07:15:58;99763.13;;;9.96;51.79
14383;BME280;7275;50.328;8.720;2024-01-07T07:18:27;99758.66;;;9.98;51.64
14383;BME280;7275;50.328;8.720;2024-01-07T07:20:55;99762.16;;;9.99;51.42
14383;BME280;7275;50.328;8.720;2024-01-07T07:23:22;99769.28;;;9.97;51.82
14383;BME280;7275;50.328;8.720;2024-01-07T07:25:50;99773.63;;;9.98;51.61
14383;BME280;7275;50.328;8.720;2024-01-07T07:28:17;99766.63;;;9.97;51.86
14383;BME280;7275;50.328;8.720;2024-01-07T07:30:45;99779.84;;;9.97;51.57
14383;BME280;7275;50.328;8.720;2024-01-07T07:33:17;99783.44;;;9.94;51.67
14383;BME280;7275;50.328;8.720;2024-01-07T07:35:47;99794.06;;;9.93;51.89
14383;BME280;7275;50.328;8.720;2024-01-07T07:38:14;99795.91;;;9.89;51.69
14383;BME280;7275;50.328;8.720;2024-01-07T07:40:42;99796.88;;;9.87;51.58
14383;BME280;7275;50.328;8.720;2024-01-07T07:43:10;99802.22;;;9.85;51.83
14383;BME280;7275;50.328;8.720;2024-01-07T07:45:38;99805.00;;;9.81;51.77
14383;BME280;7275;50.328;8.720;2024-01-07T07:48:06;99815.66;;;9.78;51.85
14383;BME280;7275;50.328;8.720;2024-01-07T07:50:34;99808.72;;;9.75;51.52
14383;BME280;7275;50.328;8.720;2024-01-07T07:53:03;99819.31;;;9.74;51.90
14383;BME280;7275;50.328;8.720;2024-01-07T07:55:30;99826.50;;;9.68;51.46
14383;BME280;7275;50.328;8.720;2024-01-07T07:57:58;99821.28;;;9.67;51.74
14383;BME280;7275;50.328;8.720;2024-01-07T08:00:26;99823.25;;;9.60;51.59
14383;BME280;7275;50.328;8.720;2024-01-07T08:02:53;99820.94;;;9.50;52.28
14383;BME280;7275;50.328;8.720;2024-01-07T08:05:21;99828.78;;;9.53;51.89
14383;BME280;7275;50.328;8.720;2024-01-07T08:07:48;99837.59;;;9.52;51.50
14383;BME280;7275;50.328;8.720;2024-01-07T08:10:17;99835.91;;;9.49;51.79
14383;BME280;7275;50.328;8.720;2024-01-07T08:12:45;99839.41;;;9.50;51.60
14383;BME280;7275;50.328;8.720;2024-01-07T08:15:12;99847.38;;;9.48;51.20
14383;BME280;7275;50.328;8.720;2024-01-07T08:17:40;99841.25;;;9.48;51.45
14383;BME280;7275;50.328;8.720;2024-01-07T08:20:09;99840.47;;;9.44;51.14
14383;BME280;7275;50.328;8.720;2024-01-07T08:22:36;99842.19;;;9.45;51.42
14383;BME280;7275;50.328;8.720;2024-01-07T08:25:05;99844.88;;;9.44;51.32
14383;BME280;7275;50.328;8.720;2024-01-07T08:27:34;99849.25;;;9.45;51.28
14383;BME280;7275;50.328;8.720;2024-01-07T08:30:04;99851.03;;;9.44;50.91
14383;BME280;7275;50.328;8.720;2024-01-07T08:32:32;99854.56;;;9.43;51.00
14383;BME280;7275;50.328;8.720;2024-01-07T08:34:59;99863.28;;;9.47;51.22
14383;BME280;7275;50.328;8.720;2024-01-07T08:37:27;99861.47;;;9.47;51.06
14383;BME280;7275;50.328;8.720;2024-01-07T08:39:54;99866.66;;;9.50;51.06
14383;BME280;7275;50.328;8.720;2024-01-07T08:42:22;99872.91;;;9.48;50.77
14383;BME280;7275;50.328;8.720;2024-01-07T08:44:55;99866.75;;;9.47;51.17
14383;BME280;7275;50.328;8.720;2024-01-07T08:47:23;99874.66;;;9.49;50.59
14383;BME280;7275;50.328;8.720;2024-01-07T08:49:50;99872.72;;;9.54;50.48
14383;BME280;7275;50.328;8.720;2024-01-07T08:52:20;99878.94;;;9.51;50.09
14383;BME280;7275;50.328;8.720;2024-01-07T08:54:47;99880.81;;;9.48;50.50
14383;BME280;7275;50.328;8.720;2024-01-07T08:57:15;99881.75;;;9.47;50.64
14383;BME280;7275;50.328;8.720;2024-01-07T08:59:42;99882.59;;;9.47;50.37
14383;BME280;7275;50.328;8.720;2024-01-07T09:02:11;99891.44;;;9.46;50.13
14383;BME280;7275;50.328;8.720;2024-01-07T09:04:39;99887.91;;;9.46;50.24
14383;BME280;7275;50.328;8.720;2024-01-07T09:07:07;99891.47;;;9.45;50.27
14383;BME280;7275;50.328;8.720;2024-01-07T09:09:34;99903.66;;;9.49;50.46
14383;BME280;7275;50.328;8.720;2024-01-07T09:12:02;99894.81;;;9.50;50.10
14383;BME280;7275;50.328;8.720;2024-01-07T09:14:30;99899.03;;;9.55;50.14
14383;BME280;7275;50.328;8.720;2024-01-07T09:16:57;99906.97;;;9.55;49.70
14383;BME280;7275;50.328;8.720;2024-01-07T09:19:26;99919.34;;;9.53;50.14
14383;BME280;7275;50.328;8.720;2024-01-07T09:21:54;99913.94;;;9.58;50.27
14383;BME280;7275;50.328;8.720;2024-01-07T09:24:21;99922.78;;;9.57;50.25
14383;BME280;7275;50.328;8.720;2024-01-07T09:26:49;99927.00;;;9.62;50.06
14383;BME280;7275;50.328;8.720;2024-01-07T09:29:18;99926.03;;;9.65;49.97
14383;BME280;7275;50.328;8.720;2024-01-07T09:31:45;99936.53;;;9.66;50.08
14383;BME280;7275;50.328;8.720;2024-01-07T09:34:13;99940.75;;;9.74;49.83
14383;BME280;7275;50.328;8.720;2024-01-07T09:36:42;99932.78;;;9.75;49.86
14383;BME280;7275;50.328;8.720;2024-01-07T09:39:10;99937.22;;;9.73;49.87
14383;BME280;7275;50.328;8.720;2024-01-07T09:41:38;99949.53;;;9.74;49.89
14383;BME280;7275;50.328;8.720;2024-01-07T09:44:06;99948.59;;;9.75;49.38
14383;BME280;7275;50.328;8.720;2024-01-07T09:46:35;99950.38;;;9.75;49.50
14383;BME280;7275;50.328;8.720;2024-01-07T09:49:04;99959.13;;;9.77;49.13
14383;BME280;7275;50.328;8.720;2024-01-07T09:51:34;99956.59;;;9.72;49.11
14383;BME280;7275;50.328;8.720;2024-01-07T09:54:08;99959.22;;;9.74;49.34
14383;BME280;7275;50.328;8.720;2024-01-07T09:56:39;99947.91;;;9.68;49.51
14383;BME280;7275;50.328;8.720;2024-01-07T09:59:09;99954.97;;;9.68;49.16
14383;BME280;7275;50.328;8.720;2024-01-07T10:01:38;99950.56;;;9.68;49.14
14383;BME280;7275;50.328;8.720;2024-01-07T10:04:06;99952.44;;;9.65;49.04
14383;BME280;7275;50.328;8.720;2024-01-07T10:06:34;99955.94;;;9.65;48.65
14383;BME280;7275;50.328;8.720;2024-01-07T10:09:05;99956.84;;;9.64;48.60
14383;BME280;7275;50.328;8.720;2024-01-07T10:11:33;99957.59;;;9.68;48.76
14383;BME280;7275;50.328;8.720;2024-01-07T10:14:01;99953.34;;;9.64;48.56
14383;BME280;7275;50.328;8.720;2024-01-07T10:16:29;99964.81;;;9.63;48.65
14383;BME280;7275;50.328;8.720;2024-01-07T10:18:56;99970.00;;;9.66;48.43
14383;BME280;7275;50.328;8.720;2024-01-07T10:21:24;99965.69;;;9.63;48.29
14383;BME280;7275;50.328;8.720;2024-01-07T10:24:08;99974.69;;;9.56;47.62
14383;BME280;7275;50.328;8.720;2024-01-07T10:26:37;99975.63;;;9.54;48.43
14383;BME280;7275;50.328;8.720;2024-01-07T10:29:05;99982.78;;;9.50;48.39
14383;BME280;7275;50.328;8.720;2024-01-07T10:31:33;99976.63;;;9.50;48.89
14383;BME280;7275;50.328;8.720;2024-01-07T10:34:01;99977.50;;;9.50;48.20
14383;BME280;7275;50.328;8.720;2024-01-07T10:36:30;99983.66;;;9.51;48.52
14383;BME280;7275;50.328;8.720;2024-01-07T10:38:58;99981.78;;;9.54;48.54
14383;BME280;7275;50.328;8.720;2024-01-07T10:41:27;99983.47;;;9.57;48.65
14383;BME280;7275;50.328;8.720;2024-01-07T10:43:56;99976.41;;;9.57;48.49
14383;BME280;7275;50.328;8.720;2024-01-07T10:46:24;99984.31;;;9.57;48.78
14383;BME280;7275;50.328;8.720;2024-01-07T10:48:55;99987.69;;;9.62;48.41
14383;BME280;7275;50.328;8.720;2024-01-07T10:51:27;99984.97;;;9.65;48.21
14383;BME280;7275;50.328;8.720;2024-01-07T10:53:56;99988.63;;;9.61;48.08
14383;BME280;7275;50.328;8.720;2024-01-07T10:56:24;99985.19;;;9.58;48.53
14383;BME280;7275;50.328;8.720;2024-01-07T10:58:54;99983.41;;;9.58;48.48
14383;BME280;7275;50.328;8.720;2024-01-07T11:01:22;99986.88;;;9.60;48.00
14383;BME280;7275;50.328;8.720;2024-01-07T11:03:57;99989.50;;;9.60;48.47
14383;BME280;7275;50.328;8.720;2024-01-07T11:06:33;99982.38;;;9.64;48.08
14383;BME280;7275;50.328;8.720;2024-01-07T11:09:18;99991.91;;;9.68;47.82
14383;BME280;7275;50.328;8.720;2024-01-07T11:11:48;99991.09;;;9.68;48.12
14383;BME280;7275;50.328;8.720;2024-01-07T11:14:35;99987.63;;;9.65;47.66
14383;BME280;7275;50.328;8.720;2024-01-07T11:17:04;99991.28;;;9.60;47.80
14383;BME280;7275;50.328;8.720;2024-01-07T11:19:32;99986.81;;;9.62;47.85
14383;BME280;7275;50.328;8.720;2024-01-07T11:22:22;99991.28;;;9.60;47.48
14383;BME280;7275;50.328;8.720;2024-01-07T11:24:55;99992.22;;;9.57;47.60
14383;BME280;7275;50.328;8.720;2024-01-07T11:27:23;100007.25;;;9.55;47.64
14383;BME280;7275;50.328;8.720;2024-01-07T11:29:55;99999.44;;;9.52;48.00
14383;BME280;7275;50.328;8.720;2024-01-07T11:32:24;100000.25;;;9.54;47.91
14383;BME280;7275;50.328;8.720;2024-01-07T11:34:56;100003.75;;;9.55;47.81
14383;BME280;7275;50.328;8.720;2024-01-07T11:37:26;100001.03;;;9.58;47.61
14383;BME280;7275;50.328;8.720;2024-01-07T11:39:55;100008.25;;;9.51;47.69
14383;BME280;7275;50.328;8.720;2024-01-07T11:42:22;100002.00;;;9.54;47.37
14383;BME280;7275;50.328;8.720;2024-01-07T11:44:52;100001.97;;;9.55;47.79
14383;BME280;7275;50.328;8.720;2024-01-07T11:47:22;100006.28;;;9.58;47.14
14383;BME280;7275;50.328;8.720;2024-01-07T11:49:50;100002.84;;;9.56;47.56
14383;BME280;7275;50.328;8.720;2024-01-07T11:52:19;100003.72;;;9.56;47.23
14383;BME280;7275;50.328;8.720;2024-01-07T11:54:47;100001.19;;;9.52;47.08
14383;BME280;7275;50.328;8.720;2024-01-07T11:57:16;100006.41;;;9.55;47.78
14383;BME280;7275;50.328;8.720;2024-01-07T11:59:43;100009.00;;;9.56;47.57
14383;BME280;7275;50.328;8.720;2024-01-07T12:02:11;100003.72;;;9.56;47.19
14383;BME280;7275;50.328;8.720;2024-01-07T12:04:40;100005.34;;;9.60;46.79
14383;BME280;7275;50.328;8.720;2024-01-07T12:07:07;100017.59;;;9.63;46.92
14383;BME280;7275;50.328;8.720;2024-01-07T12:09:37;100013.22;;;9.62;46.81
14383;BME280;7275;50.328;8.720;2024-01-07T12:12:05;100016.78;;;9.61;46.96
14383;BME280;7275;50.328;8.720;2024-01-07T12:14:32;100019.38;;;9.62;47.15
14383;BME280;7275;50.328;8.720;2024-01-07T12:17:01;100023.00;;;9.58;47.01
14383;BME280;7275;50.328;8.720;2024-01-07T12:19:28;100023.91;;;9.57;46.42
14383;BME280;7275;50.328;8.720;2024-01-07T12:22:02;100026.72;;;9.51;46.62
14383;BME280;7275;50.328;8.720;2024-01-07T12:24:30;100028.59;;;9.48;46.56
14383;BME280;7275;50.328;8.720;2024-01-07T12:27:03;100039.34;;;9.40;46.89
14383;BME280;7275;50.328;8.720;2024-01-07T12:29:31;100040.38;;;9.35;46.64
14383;BME280;7275;50.328;8.720;2024-01-07T12:31:59;100050.19;;;9.30;46.65
14383;BME280;7275;50.328;8.720;2024-01-07T12:34:29;100053.81;;;9.26;46.52
14383;BME280;7275;50.328;8.720;2024-01-07T12:36:57;100050.41;;;9.21;46.50
14383;BME280;7275;50.328;8.720;2024-01-07T12:39:27;100047.94;;;9.15;46.78
14383;BME280;7275;50.328;8.720;2024-01-07T12:41:55;100038.34;;;9.12;46.71
14383;BME280;7275;50.328;8.720;2024-01-07T12:44:27;100049.75;;;9.13;46.89
14383;BME280;7275;50.328;8.720;2024-01-07T12:46:54;100048.00;;;9.13;47.01
14383;BME280;7275;50.328;8.720;2024-01-07T12:49:22;100053.38;;;9.09;46.48
14383;BME280;7275;50.328;8.720;2024-01-07T12:51:50;100055.31;;;9.02;46.76
14383;BME280;7275;50.328;8.720;2024-01-07T12:54:17;100052.66;;;9.02;46.71
14383;BME280;7275;50.328;8.720;2024-01-07T12:56:47;100060.53;;;9.04;46.60
14383;BME280;7275;50.328;8.720;2024-01-07T12:59:16;100062.22;;;9.06;46.48
14383;BME280;7275;50.328;8.720;2024-01-07T13:01:44;100065.78;;;9.05;46.79
14383;BME280;7275;50.328;8.720;2024-01-07T13:04:12;100078.06;;;9.06;46.72
14383;BME280;7275;50.328;8.720;2024-01-07T13:06:39;100078.06;;;9.06;46.75
14383;BME280;7275;50.328;8.720;2024-01-07T13:09:07;100077.00;;;9.13;46.62
14383;BME280;7275;50.328;8.720;2024-01-07T13:11:35;100076.09;;;9.14;46.34
14383;BME280;7275;50.328;8.720;2024-01-07T13:14:04;100087.56;;;9.12;45.94
14383;BME280;7275;50.328;8.720;2024-01-07T13:16:32;100080.63;;;9.09;46.08
14383;BME280;7275;50.328;8.720;2024-01-07T13:18:59;100090.22;;;9.12;46.30
14383;BME280;7275;50.328;8.720;2024-01-07T13:21:27;100088.41;;;9.14;46.71